Ishim, Russia

08:38 +07 je la 16an de novembro 2018 (GMT +0700)
Plotnikovo | | Change Station

Elev 597 ft 56.38 °N, 85.21 °E | Updated 38 minutes ago

Parte nuba
Parte nuba
19 °F
Sentas kiel 11 °F
N
7
Vento Varianta Vento from Nordo

hodiaŭ
High -- | Low -- °F
--% Ebla precip.
hieraŭ
High -- | Low -- °F
Precip. -- co
Aerpremo 30.42 co
Vidodistanco 6.2 mejloj
Nuboj Malmultaj 2600 ft
Venta
kvazaŭtemperaturo
11 °F
Rosopunkto 12 °F
Humido 74%
Pluvokvanto 0.00 co
Neĝprofundo Not available.
8:55 AM 5:03 PM
Unua kvaronluno, 54% visible
METAR UNTT 160100Z 01003MPS 9999 FEW026CB M07/M11 Q1030 R03/490237 NOSIG RMK QFE756
Aerpremo 30.42 co
Vidodistanco 6.2 mejloj
Nuboj Malmultaj 2600 ft
Venta
kvazaŭtemperaturo
11 °F
Rosopunkto 12 °F
Humido 74%
Pluvokvanto 0.00 co
Neĝprofundo Not available.
8:55 AM 5:03 PM
Unua kvaronluno, 54% visible
METAR UNTT 160100Z 01003MPS 9999 FEW026CB M07/M11 Q1030 R03/490237 NOSIG RMK QFE756

Get Severe Weather Alerts

Thanks for signing up!

Be on the lookout for a verification email in your inbox.

You'll start receiving the daily forecast at 6 AM.

×

10-Day Weather Forecast

×

Almanac

Astronomio

Nov. 16, 2018 Leviĝo Subiro
Aktuala tempo
Civila krepusko
Naŭtika krepusko
Astronomia krepusko
Luno
Daŭro de videbla lumo
Daŭro de tago
Tomorrow will be .
, % of the Moon is Illuminated

Hodiaŭaj ekstremaĵoj

Country Highs Country Lows

Community

WunderPhotos

Category 6

Welcome to Category 6. This is the collective home for Weather Underground's featured writeups by Dr. Jeff Masters (right), Bob Henson (left), Chris Burt, and other regular contributors.

Nearby

Aerkvalito

  Aerkvalito Aerkvalita indico Poluanto
Not available.

Neĝa profundeco

Station Depth Alteco

Earthquake Activity

Urbo Distance Mag. Time & Date
Minimum magnitude displayed is 2.5.

Coastal Water Temperatures

Loko Temperaturo

Stations

Najbaraj veter-stacioj

Loko de stacio Temp Venta
kvazaŭtemperaturo
Rosopunkto Humido Vento Precip. Elev Ĝisdatigita je Tipo